Time;durP1;ratioP1;P1;durP2;ratioP2;P2;SDS_P1;SDS_P2;PMS_P1;PMS_P2;Temp;Humidity;BMP_temperature;BMP_pressure;BME280_temperature;BME280_humidity;BME280_pressure;Samples;Min_cycle;Max_cycle;Signal;HPM_P1;HPM_P2
2022/07/30 00:00:34;;;;;;;3.53;3.22;;;20.10;99.90;;;;;;5094078;28;20233;-86
2022/07/30 00:03:03;;;;;;;3.63;3.35;;;20.10;99.90;;;;;;5093843;28;20219;-86
2022/07/30 00:05:31;;;;;;;3.75;3.42;;;20.10;99.90;;;;;;5093905;28;20208;-86
2022/07/30 00:08:00;;;;;;;3.42;3.22;;;20.10;99.90;;;;;;5093944;28;20196;-86
2022/07/30 00:10:29;;;;;;;3.28;2.97;;;20.10;99.90;;;;;;5093588;28;20243;-86
2022/07/30 00:12:57;;;;;;;3.53;3.30;;;20.10;99.90;;;;;;5093958;28;20304;-86
2022/07/30 00:15:25;;;;;;;3.05;2.85;;;20.10;99.90;;;;;;5093911;28;20208;-86
2022/07/30 00:17:54;;;;;;;3.30;2.55;;;20.10;99.90;;;;;;5093640;28;20224;-86
2022/07/30 00:20:23;;;;;;;2.75;2.55;;;20.00;99.90;;;;;;5094053;28;20234;-86
2022/07/30 00:22:55;;;;;;;2.85;2.13;;;20.00;99.90;;;;;;5093870;28;20200;-86
2022/07/30 00:25:25;;;;;;;2.50;2.30;;;20.00;99.90;;;;;;5093639;28;20208;-86
2022/07/30 00:27:53;;;;;;;2.72;2.53;;;19.90;99.90;;;;;;5093631;28;20209;-86
2022/07/30 00:30:21;;;;;;;2.65;2.45;;;19.90;99.90;;;;;;5093442;28;20327;-86
2022/07/30 00:32:50;;;;;;;3.15;2.25;;;19.90;99.90;;;;;;5093664;28;20288;-86
2022/07/30 00:35:18;;;;;;;2.15;1.95;;;19.80;99.90;;;;;;5093411;28;20283;-86
2022/07/30 00:37:46;;;;;;;1.75;1.65;;;19.80;99.90;;;;;;5093957;28;20225;-85
2022/07/30 00:40:15;;;;;;;2.10;1.98;;;19.80;99.90;;;;;;5093112;28;20230;-85
2022/07/30 00:42:46;;;;;;;3.05;2.30;;;19.70;99.90;;;;;;5104036;28;20210;-86
2022/07/30 00:45:16;;;;;;;1.63;1.52;;;19.80;99.90;;;;;;5109589;28;20231;-85
2022/07/30 00:47:45;;;;;;;1.83;1.73;;;19.70;99.90;;;;;;5095214;28;20189;-85
2022/07/30 00:50:14;;;;;;;1.48;1.40;;;19.70;99.90;;;;;;5092918;28;20303;-85
2022/07/30 00:52:43;;;;;;;1.15;1.13;;;19.70;99.90;;;;;;5093601;28;20287;-86
2022/07/30 00:55:14;;;;;;;1.00;1.00;;;19.70;99.90;;;;;;5093316;28;20205;-85
2022/07/30 00:57:44;;;;;;;1.38;1.27;;;19.70;99.90;;;;;;5092966;28;20220;-85
2022/07/30 01:00:16;;;;;;;1.10;1.10;;;19.60;99.90;;;;;;5092811;28;20282;-85
2022/07/30 01:02:44;;;;;;;1.20;1.20;;;19.60;99.90;;;;;;5093175;28;20211;-86
2022/07/30 01:05:13;;;;;;;1.30;1.30;;;19.60;99.90;;;;;;5093179;28;20208;-85
2022/07/30 01:07:41;;;;;;;1.52;1.42;;;19.70;99.90;;;;;;5093131;28;20283;-85
2022/07/30 01:10:12;;;;;;;1.30;1.30;;;19.70;99.90;;;;;;5093025;28;20220;-85
2022/07/30 01:12:40;;;;;;;1.58;1.48;;;19.70;99.90;;;;;;5092669;28;20208;-85
2022/07/30 01:15:11;;;;;;;1.60;1.50;;;19.60;99.90;;;;;;5092797;28;20204;-85
2022/07/30 01:17:39;;;;;;;1.58;1.48;;;19.60;99.90;;;;;;5093112;28;20311;-85
2022/07/30 01:20:10;;;;;;;1.80;1.67;;;19.60;99.90;;;;;;5092676;28;20283;-85
2022/07/30 01:22:59;;;;;;;1.85;1.65;;;19.60;99.90;;;;;;5092781;28;20295;-86
2022/07/30 01:25:57;;;;;;;1.40;1.40;;;19.60;99.90;;;;;;5093466;28;20283;-85
2022/07/30 01:28:33;;;;;;;1.45;1.38;;;19.60;99.90;;;;;;5045297;28;20196;-85
2022/07/30 01:31:03;;;;;;;1.40;1.40;;;19.60;99.90;;;;;;5092568;28;20230;-85
2022/07/30 01:33:32;;;;;;;1.50;1.40;;;19.60;99.90;;;;;;5092863;28;20283;-85
2022/07/30 01:36:02;;;;;;;1.23;1.23;;;19.50;99.90;;;;;;5092817;28;20282;-86
2022/07/30 01:38:32;;;;;;;1.65;1.45;;;19.60;99.90;;;;;;5092428;28;20224;-85
2022/07/30 01:41:03;;;;;;;1.30;1.30;;;19.60;99.90;;;;;;5093020;28;20236;-85
2022/07/30 01:43:35;;;;;;;4.63;1.67;;;19.60;99.90;;;;;;5092754;28;20214;-85
2022/07/30 01:46:05;;;;;;;1.00;1.00;;;19.60;99.90;;;;;;5093076;28;20259;-85
2022/07/30 01:48:36;;;;;;;1.42;1.33;;;19.60;99.90;;;;;;5092602;28;20205;-85
2022/07/30 01:51:06;;;;;;;1.05;1.05;;;19.60;99.90;;;;;;5092447;28;20255;-85
2022/07/30 01:53:39;;;;;;;1.40;1.30;;;19.60;99.90;;;;;;5092514;28;20228;-85
2022/07/30 01:56:09;;;;;;;1.85;1.75;;;19.60;99.90;;;;;;5092752;28;20208;-85
2022/07/30 01:58:41;;;;;;;1.50;1.40;;;19.70;99.90;;;;;;5092487;28;20220;-85
2022/07/30 02:01:09;;;;;;;1.30;1.30;;;19.60;99.90;;;;;;5092225;28;20228;-85
2022/07/30 02:03:37;;;;;;;1.58;1.48;;;19.60;99.90;;;;;;5095415;28;20220;-85
2022/07/30 02:06:11;;;;;;;1.90;1.80;;;19.60;99.90;;;;;;5096183;28;20200;-85
2022/07/30 02:08:44;;;;;;;1.17;1.17;;;19.60;99.90;;;;;;5096148;28;20251;-85
2022/07/30 02:12:27;;;;;;;3.67;1.65;;;19.60;99.90;;;;;;5096125;28;20259;-85
2022/07/30 02:14:11;;;;;;;1.52;1.42;;;19.50;99.90;;;;;;5096438;28;20299;-86
2022/07/30 02:16:41;;;;;;;1.60;1.50;;;19.50;99.90;;;;;;5096211;28;20204;-85
2022/07/30 02:19:14;;;;;;;1.55;1.45;;;19.40;99.90;;;;;;5096125;28;20269;-85
2022/07/30 02:21:45;;;;;;;1.10;1.10;;;19.40;99.90;;;;;;5096284;28;20238;-85
2022/07/30 02:24:21;;;;;;;2.25;1.83;;;19.30;99.90;;;;;;5096325;28;20218;-85
2022/07/30 02:26:54;;;;;;;1.63;1.52;;;19.30;99.90;;;;;;5096145;28;20243;-85
2022/07/30 02:29:25;;;;;;;1.60;1.50;;;19.30;99.90;;;;;;5095790;28;20200;-85
2022/07/30 02:31:56;;;;;;;1.90;1.80;;;19.20;99.90;;;;;;5095923;28;20208;-85
2022/07/30 02:34:25;;;;;;;1.65;1.55;;;19.20;99.90;;;;;;5095740;28;20212;-85
2022/07/30 02:36:55;;;;;;;2.17;1.98;;;19.20;99.90;;;;;;5095628;28;20254;-85
2022/07/30 02:39:25;;;;;;;1.88;1.77;;;19.20;99.90;;;;;;5095311;28;20315;-85
2022/07/30 02:41:57;;;;;;;2.00;1.70;;;19.20;99.90;;;;;;5095642;28;20200;-85
2022/07/30 02:44:29;;;;;;;2.05;1.85;;;19.10;99.90;;;;;;5095827;28;20283;-85
2022/07/30 02:46:58;;;;;;;2.67;2.47;;;19.10;99.90;;;;;;5095933;28;20255;-85
2022/07/30 02:49:35;;;;;;;2.80;2.58;;;19.10;99.90;;;;;;5095187;28;20219;-86
2022/07/30 02:52:04;;;;;;;2.97;2.78;;;19.10;99.90;;;;;;5095515;28;20295;-85
2022/07/30 02:54:33;;;;;;;2.65;2.47;;;19.00;99.90;;;;;;5095780;28;20201;-85
2022/07/30 02:57:03;;;;;;;3.30;3.10;;;19.00;99.90;;;;;;5095519;28;20204;-85
2022/07/30 02:59:36;;;;;;;2.55;2.45;;;19.00;99.90;;;;;;5095266;28;20224;-85
2022/07/30 03:02:06;;;;;;;3.63;3.33;;;18.90;99.90;;;;;;5094980;28;20291;-85
2022/07/30 03:04:36;;;;;;;3.13;2.88;;;18.90;99.90;;;;;;5095422;28;20297;-85
2022/07/30 03:07:05;;;;;;;4.28;2.95;;;18.90;99.90;;;;;;5095662;28;20264;-85
2022/07/30 03:09:37;;;;;;;3.95;3.65;;;18.80;99.90;;;;;;5094904;28;20231;-85
2022/07/30 03:12:19;;;;;;;3.00;2.80;;;18.80;99.90;;;;;;5094991;28;20204;-85
2022/07/30 03:14:50;;;;;;;3.85;3.55;;;18.90;99.90;;;;;;5095056;28;20204;-85
2022/07/30 03:17:19;;;;;;;4.18;3.80;;;18.80;99.90;;;;;;5095050;28;20292;-85
2022/07/30 03:19:49;;;;;;;3.83;3.45;;;18.90;99.90;;;;;;5094603;28;20234;-84
2022/07/30 03:22:19;;;;;;;3.10;2.90;;;18.90;99.90;;;;;;5095563;28;20255;-85
2022/07/30 03:24:49;;;;;;;2.95;2.75;;;18.90;99.90;;;;;;5094707;28;20284;-85
2022/07/30 03:27:19;;;;;;;2.38;2.17;;;19.00;99.90;;;;;;5095164;28;20208;-84
2022/07/30 03:29:49;;;;;;;3.00;2.80;;;19.00;99.90;;;;;;5094859;28;20307;-85
2022/07/30 03:32:18;;;;;;;3.33;2.78;;;19.00;99.90;;;;;;5095180;28;20228;-84
2022/07/30 03:34:53;;;;;;;2.47;2.38;;;19.10;99.90;;;;;;5094736;28;20240;-84
2022/07/30 03:37:24;;;;;;;2.55;2.45;;;19.10;99.90;;;;;;5094656;28;20211;-85
2022/07/30 03:39:54;;;;;;;2.60;2.40;;;19.10;99.90;;;;;;5094077;28;20307;-85
2022/07/30 03:42:22;;;;;;;2.50;2.30;;;19.10;99.90;;;;;;5094399;28;20218;-85
2022/07/30 03:44:53;;;;;;;2.45;2.20;;;19.10;99.90;;;;;;5094669;28;20205;-85
2022/07/30 03:47:23;;;;;;;2.67;2.47;;;19.10;99.90;;;;;;5094759;28;20204;-85
2022/07/30 03:49:52;;;;;;;2.83;2.63;;;19.10;99.90;;;;;;5093937;28;20295;-85
2022/07/30 03:52:21;;;;;;;2.28;2.17;;;19.10;99.90;;;;;;5094532;28;20294;-85
2022/07/30 03:54:50;;;;;;;2.75;2.55;;;19.10;99.90;;;;;;5094385;28;20234;-85
2022/07/30 03:57:19;;;;;;;1.85;1.75;;;19.00;99.90;;;;;;5094393;28;20288;-85
2022/07/30 03:59:50;;;;;;;3.08;2.83;;;18.80;99.90;;;;;;5093902;28;20224;-85
2022/07/30 04:02:20;;;;;;;2.70;2.50;;;18.80;99.90;;;;;;5093839;28;20254;-86
2022/07/30 04:04:48;;;;;;;2.10;2.00;;;18.70;99.90;;;;;;5094035;28;20267;-85
2022/07/30 04:07:16;;;;;;;2.65;2.42;;;18.60;99.90;;;;;;5093963;28;20218;-85
2022/07/30 04:09:45;;;;;;;2.60;2.40;;;18.50;99.90;;;;;;5093779;28;20304;-85
2022/07/30 04:12:13;;;;;;;6.38;2.83;;;18.50;99.90;;;;;;5093652;28;20219;-85
2022/07/30 04:14:43;;;;;;;2.83;2.63;;;18.50;99.90;;;;;;5094231;28;20200;-85
2022/07/30 04:17:16;;;;;;;2.60;2.40;;;18.50;99.90;;;;;;5109928;28;20228;-86
2022/07/30 04:19:51;;;;;;;3.05;2.85;;;18.50;99.90;;;;;;5113617;28;20242;-88
2022/07/30 04:22:25;;;;;;;2.92;2.72;;;18.50;99.90;;;;;;5093914;28;20263;-89
2022/07/30 04:24:55;;;;;;;2.70;2.50;;;18.50;99.90;;;;;;5092891;28;20268;-89
2022/07/30 04:27:25;;;;;;;2.95;2.75;;;18.50;99.90;;;;;;5093938;28;20264;-88
2022/07/30 04:29:54;;;;;;;3.25;3.05;;;18.50;99.90;;;;;;5093624;28;20248;-88
2022/07/30 04:32:23;;;;;;;3.80;3.50;;;18.50;99.90;;;;;;5093431;28;20291;-87
2022/07/30 04:34:55;;;;;;;3.28;2.97;;;18.50;99.90;;;;;;5093247;28;20222;-88
2022/07/30 04:37:27;;;;;;;3.78;3.35;;;18.60;99.90;;;;;;5083128;28;20216;-88
2022/07/30 04:39:56;;;;;;;3.63;3.33;;;18.60;99.90;;;;;;5084318;28;20220;-88
2022/07/30 04:42:25;;;;;;;3.88;3.58;;;18.60;99.90;;;;;;5092893;28;20238;-88
2022/07/30 04:44:54;;;;;;;3.97;3.67;;;18.60;99.90;;;;;;5093566;28;20211;-87
2022/07/30 04:47:23;;;;;;;3.10;2.90;;;18.70;99.90;;;;;;5093556;28;20283;-88
2022/07/30 04:49:54;;;;;;;3.25;2.97;;;18.70;99.90;;;;;;5092429;28;20231;-88
2022/07/30 04:52:24;;;;;;;2.90;2.80;;;18.70;99.90;;;;;;5093351;28;20211;-89
2022/07/30 04:54:56;;;;;;;3.22;2.92;;;18.70;99.90;;;;;;5093122;28;20256;-88
2022/07/30 04:57:25;;;;;;;3.72;3.40;;;18.70;99.90;;;;;;5087912;28;20215;-89
2022/07/30 04:59:54;;;;;;;3.15;2.88;;;18.70;99.90;;;;;;5083567;28;20255;-88
2022/07/30 05:02:25;;;;;;;3.72;3.42;;;18.70;99.90;;;;;;5078768;28;20268;-89
2022/07/30 05:04:56;;;;;;;2.95;2.75;;;18.70;99.90;;;;;;5093445;28;20220;-88
2022/07/30 05:07:27;;;;;;;3.15;2.72;;;18.70;99.90;;;;;;5088472;28;20261;-89
2022/07/30 05:09:55;;;;;;;3.03;2.83;;;18.70;99.90;;;;;;5072592;28;20308;-89
2022/07/30 05:12:32;;;;;;;2.95;2.75;;;18.70;99.90;;;;;;5072773;28;20228;-89
2022/07/30 05:15:01;;;;;;;3.13;2.92;;;18.70;99.90;;;;;;5086551;28;20223;-89
2022/07/30 05:17:29;;;;;;;6.60;2.67;;;18.70;99.90;;;;;;5092793;28;20238;-89
2022/07/30 05:19:59;;;;;;;3.30;3.00;;;18.60;99.90;;;;;;5092636;28;20266;-89
2022/07/30 05:22:29;;;;;;;2.42;2.33;;;18.60;99.90;;;;;;5093016;28;20244;-88
2022/07/30 05:24:57;;;;;;;2.25;2.15;;;18.60;99.90;;;;;;5092722;28;20231;-89
2022/07/30 05:27:26;;;;;;;2.83;2.63;;;18.60;99.90;;;;;;5092971;28;20205;-89
2022/07/30 05:29:54;;;;;;;2.25;2.15;;;18.60;99.90;;;;;;5092468;28;20283;-89
2022/07/30 05:32:23;;;;;;;2.25;2.13;;;18.60;99.90;;;;;;5092890;28;20208;-89
2022/07/30 05:34:57;;;;;;;2.50;2.40;;;18.60;99.90;;;;;;5092929;28;20204;-88
2022/07/30 05:37:27;;;;;;;2.00;1.90;;;18.60;99.90;;;;;;5096272;28;20291;-89
2022/07/30 05:39:55;;;;;;;2.15;1.95;;;18.70;99.90;;;;;;5096691;28;20335;-89
2022/07/30 05:42:30;;;;;;;2.25;2.05;;;18.60;99.90;;;;;;5096874;28;20215;-89
2022/07/30 05:44:59;;;;;;;2.38;2.17;;;18.70;99.90;;;;;;5097063;28;20258;-88
2022/07/30 05:47:27;;;;;;;2.35;2.15;;;18.60;99.90;;;;;;5097034;28;20204;-88
2022/07/30 05:49:55;;;;;;;2.55;2.35;;;18.60;99.90;;;;;;5096633;28;20283;-88
2022/07/30 05:52:31;;;;;;;1.95;1.85;;;18.60;99.90;;;;;;5096878;28;20277;-88
2022/07/30 05:54:59;;;;;;;3.00;2.33;;;18.60;99.90;;;;;;5096772;28;20294;-88
2022/07/30 05:57:27;;;;;;;2.00;1.90;;;18.60;99.90;;;;;;5096793;28;20258;-88
2022/07/30 05:59:55;;;;;;;2.63;2.42;;;18.60;99.90;;;;;;5096141;28;20320;-88
2022/07/30 06:02:24;;;;;;;1.92;1.83;;;18.50;99.90;;;;;;5096639;28;20235;-88
2022/07/30 06:04:52;;;;;;;2.17;2.08;;;18.40;99.90;;;;;;5096217;28;20268;-88
2022/07/30 06:07:20;;;;;;;2.00;1.90;;;18.30;99.90;;;;;;5096051;28;20212;-88
2022/07/30 06:09:50;;;;;;;2.55;2.38;;;18.20;99.90;;;;;;5096029;28;20227;-87
2022/07/30 06:12:18;;;;;;;2.20;2.10;;;18.20;99.90;;;;;;5095958;28;20196;-88
2022/07/30 06:14:47;;;;;;;2.42;2.22;;;18.20;99.90;;;;;;5096258;28;20200;-88
2022/07/30 06:17:15;;;;;;;2.92;2.72;;;18.10;99.90;;;;;;5096343;28;20218;-88
2022/07/30 06:19:43;;;;;;;5.55;1.92;;;18.10;99.90;;;;;;5095358;28;20308;-88
2022/07/30 06:22:12;;;;;;;1.92;1.83;;;18.10;99.90;;;;;;5096083;28;20292;-89
2022/07/30 06:24:40;;;;;;;2.42;2.22;;;18.00;99.90;;;;;;5095775;28;20247;-87
2022/07/30 06:27:10;;;;;;;2.33;2.10;;;18.00;99.90;;;;;;5095817;28;20204;-89
2022/07/30 06:29:38;;;;;;;2.38;2.28;;;17.90;99.90;;;;;;5095781;28;20304;-85
2022/07/30 06:32:07;;;;;;;2.03;1.92;;;17.90;99.90;;;;;;5095494;28;20252;-85
2022/07/30 06:34:35;;;;;;;2.45;2.35;;;17.90;99.90;;;;;;5095896;28;20276;-87
2022/07/30 06:37:03;;;;;;;2.38;2.03;;;17.90;99.90;;;;;;5095913;28;20212;-86
2022/07/30 06:39:31;;;;;;;7.28;2.50;;;17.90;99.90;;;;;;5095462;28;20239;-86
2022/07/30 06:42:21;;;;;;;2.60;2.40;;;17.90;99.90;;;;;;5095278;28;20200;-84
2022/07/30 06:44:50;;;;;;;2.08;1.98;;;17.90;99.90;;;;;;5095879;28;20234;-85
2022/07/30 06:47:24;;;;;;;1.90;1.80;;;17.90;99.90;;;;;;5095688;28;20305;-85
2022/07/30 06:49:53;;;;;;;2.15;2.00;;;17.90;99.90;;;;;;5094942;28;20227;-85
2022/07/30 06:52:21;;;;;;;3.97;2.65;;;17.90;99.90;;;;;;5095153;28;20260;-85
2022/07/30 06:54:50;;;;;;;2.72;2.53;;;17.90;99.90;;;;;;5095514;28;20291;-84
2022/07/30 06:57:18;;;;;;;2.40;2.28;;;17.90;99.90;;;;;;5095713;28;20200;-87
2022/07/30 06:59:48;;;;;;;2.10;2.00;;;17.90;99.90;;;;;;5095472;28;20322;-84
2022/07/30 07:02:23;;;;;;;2.35;2.22;;;17.90;99.90;;;;;;5095145;28;20282;-85
2022/07/30 07:04:51;;;;;;;1.90;1.80;;;17.90;99.90;;;;;;5095120;28;20208;-86
2022/07/30 07:07:20;;;;;;;7.60;2.45;;;17.90;99.90;;;;;;5095327;28;20208;-84
2022/07/30 07:10:08;;;;;;;2.28;2.17;;;17.90;99.90;;;;;;5095284;28;20216;-84
2022/07/30 07:12:37;;;;;;;2.90;2.60;;;17.90;99.90;;;;;;5095068;28;20235;-85
2022/07/30 07:15:08;;;;;;;2.53;2.35;;;17.90;99.90;;;;;;5094931;28;20213;-85
2022/07/30 07:17:36;;;;;;;2.75;2.55;;;17.90;99.90;;;;;;5095225;28;20204;-87
2022/07/30 07:20:05;;;;;;;2.30;2.17;;;17.90;99.90;;;;;;5094641;28;20311;-87
2022/07/30 07:22:34;;;;;;;2.70;2.50;;;17.90;99.90;;;;;;5094545;28;20227;-87
2022/07/30 07:25:02;;;;;;;2.65;2.45;;;17.90;99.90;;;;;;5095345;28;20288;-85
2022/07/30 07:27:32;;;;;;;2.15;1.95;;;17.90;99.90;;;;;;5095044;28;20204;-86
2022/07/30 07:30:00;;;;;;;2.17;2.08;;;17.90;99.90;;;;;;5094089;28;20228;-86
2022/07/30 07:32:35;;;;;;;2.22;2.13;;;17.90;99.90;;;;;;5095023;28;20196;-87
2022/07/30 07:35:03;;;;;;;2.45;2.25;;;17.90;99.90;;;;;;5085377;28;20280;-87
2022/07/30 07:37:31;;;;;;;2.70;2.50;;;18.00;99.90;;;;;;5078999;28;20260;-87
2022/07/30 07:40:02;;;;;;;2.70;2.50;;;18.00;99.90;;;;;;5074161;28;20284;-85
2022/07/30 07:42:31;;;;;;;2.35;2.25;;;18.00;99.90;;;;;;5073817;28;20229;-85
2022/07/30 07:44:59;;;;;;;2.55;2.38;;;18.00;99.90;;;;;;5093140;28;20204;-85
2022/07/30 07:47:27;;;;;;;2.80;2.60;;;18.10;99.90;;;;;;5095521;28;20208;-84
2022/07/30 07:49:57;;;;;;;1.98;1.88;;;18.00;99.90;;;;;;5094381;28;20216;-85
2022/07/30 07:52:25;;;;;;;2.58;2.38;;;18.10;99.90;;;;;;5094615;28;20200;-84
2022/07/30 07:54:53;;;;;;;2.60;2.40;;;18.10;99.90;;;;;;5094197;28;20211;-85
2022/07/30 07:57:22;;;;;;;2.67;2.50;;;18.20;99.90;;;;;;5094393;28;20292;-85
2022/07/30 07:59:53;;;;;;;1.98;1.88;;;18.20;99.90;;;;;;5093068;28;20232;-85
2022/07/30 08:02:21;;;;;;;2.22;2.13;;;18.20;99.90;;;;;;5094166;28;20230;-86
2022/07/30 08:04:49;;;;;;;2.08;1.98;;;18.20;99.90;;;;;;5094676;28;20283;-85
2022/07/30 08:07:19;;;;;;;3.13;2.92;;;18.30;99.90;;;;;;5093818;28;20204;-85
2022/07/30 08:09:47;;;;;;;2.60;2.40;;;18.30;99.90;;;;;;5088929;28;20225;-85
2022/07/30 08:12:16;;;;;;;2.47;2.28;;;18.30;99.90;;;;;;5090647;28;20231;-85
2022/07/30 08:14:44;;;;;;;3.00;2.80;;;18.30;99.90;;;;;;5093243;28;20207;-85
2022/07/30 08:17:12;;;;;;;3.80;3.33;;;18.40;99.90;;;;;;5093588;28;20232;-86
2022/07/30 08:19:41;;;;;;;2.15;2.05;;;18.40;99.90;;;;;;5093769;28;20220;-86
2022/07/30 08:22:09;;;;;;;2.45;2.28;;;18.40;99.90;;;;;;5093785;28;20320;-85
2022/07/30 08:24:39;;;;;;;3.03;2.67;;;18.40;99.90;;;;;;5093822;28;20235;-86
2022/07/30 08:27:08;;;;;;;2.65;2.42;;;18.50;99.90;;;;;;5093503;28;20208;-86
2022/07/30 08:29:36;;;;;;;2.92;2.67;;;18.50;99.90;;;;;;5093423;28;20289;-86
2022/07/30 08:32:05;;;;;;;2.78;2.63;;;18.50;99.90;;;;;;5093801;28;20283;-86
2022/07/30 08:34:33;;;;;;;2.72;2.53;;;18.50;99.90;;;;;;5093531;28;20279;-86
2022/07/30 08:37:01;;;;;;;2.40;2.30;;;18.50;99.90;;;;;;5092980;28;20212;-85
2022/07/30 08:39:30;;;;;;;2.40;2.25;;;18.60;99.90;;;;;;5093416;28;20208;-86
2022/07/30 08:42:02;;;;;;;2.95;2.75;;;18.60;99.90;;;;;;5093407;28;20311;-84
2022/07/30 08:44:33;;;;;;;3.28;2.33;;;18.60;99.90;;;;;;5093416;28;20216;-85
2022/07/30 08:47:02;;;;;;;3.80;2.70;;;18.60;99.90;;;;;;5093507;28;20200;-86
2022/07/30 08:49:32;;;;;;;3.05;2.85;;;18.60;99.90;;;;;;5092817;28;20218;-85
2022/07/30 08:52:03;;;;;;;3.08;2.88;;;18.60;99.90;;;;;;5093626;28;20288;-84
2022/07/30 08:54:32;;;;;;;2.75;2.55;;;18.60;99.90;;;;;;5093398;28;20239;-85
2022/07/30 08:57:03;;;;;;;2.80;2.70;;;18.60;99.90;;;;;;5093377;28;20264;-84
2022/07/30 08:59:32;;;;;;;2.65;2.45;;;18.60;99.90;;;;;;5093181;28;20216;-85
2022/07/30 09:02:22;;;;;;;3.58;2.65;;;18.60;99.90;;;;;;5092955;28;20220;-84
2022/07/30 09:04:55;;;;;;;3.15;2.83;;;18.60;99.90;;;;;;5093043;28;20203;-84
2022/07/30 09:07:23;;;;;;;3.17;2.97;;;18.60;99.90;;;;;;5092966;28;20208;-84
2022/07/30 09:09:51;;;;;;;3.08;2.88;;;18.70;99.90;;;;;;5092867;28;20223;-84
2022/07/30 09:12:35;;;;;;;3.65;2.95;;;18.70;99.90;;;;;;5092737;28;20287;-84
2022/07/30 09:15:06;;;;;;;2.78;2.58;;;18.70;99.90;;;;;;5093004;28;20280;-84
2022/07/30 09:17:55;;;;;;;2.95;2.67;;;18.70;99.90;;;;;;5092993;28;20205;-84
2022/07/30 09:20:26;;;;;;;2.97;2.78;;;18.80;99.90;;;;;;5092877;28;20233;-84
2022/07/30 09:23:09;;;;;;;2.88;2.67;;;18.80;99.90;;;;;;5171608;27;20587;-83
2022/07/30 09:25:39;;;;;;;3.70;3.40;;;18.70;99.90;;;;;;5066456;28;20236;-82
2022/07/30 09:28:08;;;;;;;3.20;3.00;;;18.70;99.90;;;;;;5066604;27;20225;-84
2022/07/30 09:30:47;;;;;;;4.88;4.13;;;18.70;99.90;;;;;;5066347;27;20225;-83
2022/07/30 09:33:17;;;;;;;3.35;3.15;;;18.70;99.90;;;;;;5066426;28;20205;-84
2022/07/30 09:35:56;;;;;;;4.88;4.47;;;18.70;99.90;;;;;;5066923;27;20212;-83
2022/07/30 09:38:26;;;;;;;3.97;3.78;;;18.70;99.90;;;;;;5065739;27;20196;-84
2022/07/30 09:40:56;;;;;;;5.03;3.72;;;18.80;99.90;;;;;;5066184;27;20231;-84
2022/07/30 09:43:25;;;;;;;4.55;4.15;;;18.80;99.90;;;;;;5066497;27;20209;-83
2022/07/30 09:45:59;;;;;;;4.38;4.07;;;18.80;99.90;;;;;;5066430;27;20201;-83
2022/07/30 09:48:28;;;;;;;4.15;3.75;;;18.90;99.90;;;;;;5066259;27;20231;-83
2022/07/30 09:50:56;;;;;;;3.90;3.60;;;19.00;99.90;;;;;;5066271;27;20233;-83
2022/07/30 09:53:27;;;;;;;4.07;3.75;;;19.10;99.90;;;;;;5066103;27;20210;-83
2022/07/30 09:55:58;;;;;;;3.80;3.60;;;19.20;99.90;;;;;;5066301;27;20209;-83
2022/07/30 09:58:38;;;;;;;3.60;3.38;;;19.40;99.90;;;;;;5066187;27;20305;-83
2022/07/30 10:01:12;;;;;;;4.50;4.10;;;19.50;99.90;;;;;;5066083;28;20229;-83
2022/07/30 10:03:43;;;;;;;3.92;3.60;;;19.50;99.90;;;;;;5066291;28;20205;-83
2022/07/30 10:06:14;;;;;;;3.33;3.13;;;19.60;99.90;;;;;;5065725;27;20209;-83
2022/07/30 10:08:46;;;;;;;4.22;3.83;;;19.70;99.90;;;;;;5065744;27;20205;-83
2022/07/30 10:11:17;;;;;;;4.07;3.78;;;19.90;99.90;;;;;;5065919;27;20230;-83
2022/07/30 10:13:54;;;;;;;3.95;3.60;;;19.90;99.90;;;;;;5065793;27;20236;-84
2022/07/30 10:16:25;;;;;;;4.90;4.50;;;20.00;99.90;;;;;;5065922;27;20213;-84
2022/07/30 10:18:56;;;;;;;4.25;3.65;;;20.10;99.90;;;;;;5065681;28;20238;-83
2022/07/30 10:21:25;;;;;;;3.35;3.15;;;20.20;99.90;;;;;;5065295;27;20233;-83
2022/07/30 10:23:55;;;;;;;5.18;4.20;;;20.30;99.90;;;;;;5065528;28;20280;-83
2022/07/30 10:26:25;;;;;;;4.25;3.80;;;20.30;99.90;;;;;;5065567;28;20292;-83
2022/07/30 10:28:53;;;;;;;4.07;3.78;;;20.30;99.90;;;;;;5065427;27;20198;-82
2022/07/30 10:31:22;;;;;;;4.68;4.28;;;20.50;99.90;;;;;;5065480;27;20281;-82
2022/07/30 10:34:11;;;;;;;3.83;3.53;;;20.60;99.90;;;;;;5054342;27;20198;-82
2022/07/30 10:36:44;;;;;;;4.60;4.20;;;20.70;99.90;;;;;;5051995;28;20247;-82
2022/07/30 10:39:24;;;;;;;4.20;3.90;;;20.80;99.90;;;;;;5051632;28;20236;-84
2022/07/30 10:42:04;;;;;;;4.32;4.03;;;21.00;99.90;;;;;;5051891;28;20229;-83
2022/07/30 10:45:01;;;;;;;5.03;4.53;;;21.20;99.90;;;;;;5051886;28;20205;-82
2022/07/30 10:47:33;;;;;;;4.68;4.30;;;21.30;99.90;;;;;;5051781;28;20205;-83
2022/07/30 10:50:13;;;;;;;4.20;3.80;;;21.60;99.90;;;;;;5051505;28;20226;-83
2022/07/30 10:52:49;;;;;;;5.60;4.38;;;21.70;99.90;;;;;;5051684;27;20206;-83
2022/07/30 10:55:21;;;;;;;4.18;3.88;;;22.00;99.90;;;;;;5051916;28;20201;-82
2022/07/30 10:58:07;;;;;;;3.58;3.35;;;22.00;99.90;;;;;;5051794;27;20205;-84
2022/07/30 11:00:57;;;;;;;4.97;3.80;;;22.20;99.90;;;;;;5051182;28;20225;-83
2022/07/30 11:03:27;;;;;;;3.83;3.47;;;22.40;99.90;;;;;;5051839;27;20226;-83
2022/07/30 11:06:27;;;;;;;4.60;4.00;;;22.60;99.90;;;;;;5051130;27;20205;-84
2022/07/30 11:08:56;;;;;;;4.18;3.80;;;22.60;99.90;;;;;;5038842;27;20251;-91
2022/07/30 11:11:45;;;;;;;3.90;3.60;;;22.60;99.90;;;;;;5031829;28;20289;-94
2022/07/30 11:14:58;;;;;;;3.70;3.40;;;22.60;99.90;;;;;;5071599;27;20202;-91
2022/07/30 11:18:03;;;;;;;4.00;3.65;;;22.70;99.90;;;;;;5109739;27;20199;-92
2022/07/30 11:21:02;;;;;;;4.97;3.97;;;22.90;99.90;;;;;;5093459;27;20217;-93
2022/07/30 11:23:37;;;;;;;4.88;4.47;;;23.00;99.90;;;;;;5066392;28;20220;-95
2022/07/30 11:26:11;;;;;;;3.92;3.63;;;23.00;99.90;;;;;;5032480;27;20223;-90
2022/07/30 11:28:43;;;;;;;3.53;3.25;;;23.00;99.90;;;;;;5033906;28;20210;-92
2022/07/30 11:31:31;;;;;;;4.30;3.90;;;23.10;99.90;;;;;;5033442;27;20222;-88
2022/07/30 11:34:27;;;;;;;5.05;4.43;;;23.10;99.90;;;;;;5032319;27;20194;-87
2022/07/30 11:37:13;;;;;;;4.18;3.83;;;23.00;99.90;;;;;;5038929;28;20266;-93
2022/07/30 11:40:12;;;;;;;4.07;3.78;;;22.80;99.90;;;;;;5051491;27;20304;-93
2022/07/30 11:42:42;;;;;;;3.53;3.22;;;22.70;99.90;;;;;;5051207;28;20284;-93
2022/07/30 11:45:25;;;;;;;4.07;3.78;;;22.70;99.90;;;;;;5051845;28;20202;-93
2022/07/30 11:47:56;;;;;;;3.28;3.05;;;22.70;99.90;;;;;;5053333;27;20227;-93
2022/07/30 11:50:26;;;;;;;3.50;3.30;;;22.70;99.90;;;;;;5066591;27;20210;-94
2022/07/30 11:52:57;;;;;;;3.38;3.17;;;22.70;99.90;;;;;;5075181;27;20189;-93
2022/07/30 11:55:29;;;;;;;4.35;3.95;;;22.80;99.90;;;;;;5059219;27;20198;-93
2022/07/30 11:57:58;;;;;;;3.53;3.33;;;22.70;99.90;;;;;;5051653;28;20205;-93
2022/07/30 12:00:34;;;;;;;4.53;4.13;;;22.60;99.90;;;;;;5051341;28;20226;-94
2022/07/30 12:03:09;;;;;;;3.58;3.35;;;22.50;99.90;;;;;;5051355;27;20304;-94
2022/07/30 12:05:38;;;;;;;4.43;4.03;;;22.50;99.90;;;;;;5051377;28;20225;-94
2022/07/30 12:08:08;;;;;;;3.25;3.05;;;22.50;99.90;;;;;;5050725;27;20237;-93
2022/07/30 12:10:59;;;;;;;3.95;3.65;;;22.50;99.90;;;;;;5050773;28;20222;-93
2022/07/30 12:13:27;;;;;;;5.93;4.18;;;22.40;99.90;;;;;;5050930;27;20324;-93
2022/07/30 12:16:14;;;;;;;3.85;3.55;;;22.40;99.90;;;;;;5050902;28;20214;-92
2022/07/30 12:18:44;;;;;;;6.78;3.80;;;22.50;99.90;;;;;;5050951;28;20212;-92
2022/07/30 12:21:14;;;;;;;3.70;3.40;;;22.50;99.90;;;;;;5050757;28;20233;-93
2022/07/30 12:23:54;;;;;;;3.85;3.55;;;22.50;99.90;;;;;;5050398;28;20345;-93
2022/07/30 12:26:25;;;;;;;4.32;3.50;;;22.50;99.90;;;;;;5050486;28;20297;-93
2022/07/30 12:28:55;;;;;;;3.50;3.22;;;22.50;99.90;;;;;;5050791;27;20206;-95
2022/07/30 12:31:23;;;;;;;2.97;2.78;;;22.50;99.90;;;;;;5050394;27;20298;-93
2022/07/30 12:33:52;;;;;;;3.47;3.17;;;22.50;99.90;;;;;;5050614;28;20280;-92
2022/07/30 12:36:29;;;;;;;2.88;2.67;;;22.60;99.90;;;;;;5050664;28;20294;-93
2022/07/30 12:39:00;;;;;;;2.65;2.53;;;22.60;99.90;;;;;;5050127;27;20209;-92
2022/07/30 12:41:50;;;;;;;4.03;3.70;;;22.70;99.90;;;;;;5050173;28;20233;-93
2022/07/30 12:44:38;;;;;;;3.60;3.30;;;22.70;99.90;;;;;;5052692;28;20240;-91
2022/07/30 12:47:20;;;;;;;3.65;3.35;;;22.80;99.90;;;;;;5053224;27;20221;-91
2022/07/30 12:49:49;;;;;;;3.28;3.08;;;22.90;99.90;;;;;;5050065;28;20226;-90
2022/07/30 12:52:25;;;;;;;3.00;2.80;;;23.10;99.90;;;;;;5050496;27;20206;-89
2022/07/30 12:55:05;;;;;;;3.35;3.05;;;23.30;99.90;;;;;;5049964;28;20208;-89
2022/07/30 12:57:54;;;;;;;6.47;2.72;;;23.40;99.90;;;;;;5049933;28;20210;-89
2022/07/30 13:00:23;;;;;;;2.75;2.55;;;23.40;99.90;;;;;;5050222;27;20225;-89
2022/07/30 13:02:52;;;;;;;2.60;2.42;;;23.50;99.90;;;;;;5050320;27;20212;-89
2022/07/30 13:05:21;;;;;;;2.60;2.40;;;23.40;99.90;;;;;;5050237;28;20233;-88
2022/07/30 13:07:57;;;;;;;3.42;2.78;;;23.40;99.90;;;;;;5050028;28;20240;-88
2022/07/30 13:10:27;;;;;;;2.60;2.40;;;23.30;99.90;;;;;;5050079;28;20264;-88
2022/07/30 13:12:58;;;;;;;2.80;2.60;;;23.20;99.90;;;;;;5049797;28;20209;-88